sensor_id;sensor_type;location;lat;lon;timestamp;temperature;humidity
11112;DHT22;5609;49.466;8.468;2024-02-28T00:01:59;6.20;99.90
11112;DHT22;5609;49.466;8.468;2024-02-28T00:04:27;6.10;99.90
11112;DHT22;5609;49.466;8.468;2024-02-28T00:06:54;6.10;99.90
11112;DHT22;5609;49.466;8.468;2024-02-28T00:09:21;6.20;99.90
11112;DHT22;5609;49.466;8.468;2024-02-28T00:11:47;6.10;99.90
11112;DHT22;5609;49.466;8.468;2024-02-28T00:14:14;6.00;99.90
11112;DHT22;5609;49.466;8.468;2024-02-28T00:16:41;6.00;99.90
11112;DHT22;5609;49.466;8.468;2024-02-28T00:19:08;5.90;99.90
11112;DHT22;5609;49.466;8.468;2024-02-28T00:21:38;5.90;99.90
11112;DHT22;5609;49.466;8.468;2024-02-28T00:24:05;5.90;99.90
11112;DHT22;5609;49.466;8.468;2024-02-28T00:26:32;5.80;99.90
11112;DHT22;5609;49.466;8.468;2024-02-28T00:28:59;5.80;99.90
11112;DHT22;5609;49.466;8.468;2024-02-28T00:31:25;5.80;99.90
11112;DHT22;5609;49.466;8.468;2024-02-28T00:33:52;5.70;99.90
11112;DHT22;5609;49.466;8.468;2024-02-28T00:36:19;5.70;99.90
11112;DHT22;5609;49.466;8.468;2024-02-28T00:38:47;5.60;99.90
11112;DHT22;5609;49.466;8.468;2024-02-28T00:41:13;5.70;99.90
11112;DHT22;5609;49.466;8.468;2024-02-28T00:43:40;5.60;99.90
11112;DHT22;5609;49.466;8.468;2024-02-28T00:46:06;5.50;99.90
11112;DHT22;5609;49.466;8.468;2024-02-28T00:48:36;5.50;99.90
11112;DHT22;5609;49.466;8.468;2024-02-28T00:51:03;5.50;99.90
11112;DHT22;5609;49.466;8.468;2024-02-28T00:53:30;5.50;99.90
11112;DHT22;5609;49.466;8.468;2024-02-28T00:55:58;5.40;99.90
11112;DHT22;5609;49.466;8.468;2024-02-28T00:58:24;5.40;99.90
11112;DHT22;5609;49.466;8.468;2024-02-28T01:00:53;5.40;99.90
11112;DHT22;5609;49.466;8.468;2024-02-28T01:03:19;5.40;99.90
11112;DHT22;5609;49.466;8.468;2024-02-28T01:05:46;5.40;99.90
11112;DHT22;5609;49.466;8.468;2024-02-28T01:08:15;5.40;99.90
11112;DHT22;5609;49.466;8.468;2024-02-28T01:10:42;5.30;99.90
11112;DHT22;5609;49.466;8.468;2024-02-28T01:13:10;5.30;99.90
11112;DHT22;5609;49.466;8.468;2024-02-28T01:15:39;5.30;99.90
11112;DHT22;5609;49.466;8.468;2024-02-28T01:18:05;5.30;99.90
11112;DHT22;5609;49.466;8.468;2024-02-28T01:20:32;5.40;99.90
11112;DHT22;5609;49.466;8.468;2024-02-28T01:22:58;5.30;99.90
11112;DHT22;5609;49.466;8.468;2024-02-28T01:25:25;5.30;99.90
11112;DHT22;5609;49.466;8.468;2024-02-28T01:27:52;5.40;99.90
11112;DHT22;5609;49.466;8.468;2024-02-28T01:30:20;5.40;99.90
11112;DHT22;5609;49.466;8.468;2024-02-28T01:32:46;5.40;99.90
11112;DHT22;5609;49.466;8.468;2024-02-28T01:35:13;5.30;99.90
11112;DHT22;5609;49.466;8.468;2024-02-28T01:37:40;5.40;99.90
11112;DHT22;5609;49.466;8.468;2024-02-28T01:40:08;5.30;99.90
11112;DHT22;5609;49.466;8.468;2024-02-28T01:42:35;5.30;99.90
11112;DHT22;5609;49.466;8.468;2024-02-28T01:45:02;5.20;99.90
11112;DHT22;5609;49.466;8.468;2024-02-28T01:47:31;5.20;99.90
11112;DHT22;5609;49.466;8.468;2024-02-28T01:49:58;5.20;99.90
11112;DHT22;5609;49.466;8.468;2024-02-28T01:52:25;5.20;99.90
11112;DHT22;5609;49.466;8.468;2024-02-28T01:54:51;5.20;99.90
11112;DHT22;5609;49.466;8.468;2024-02-28T01:57:18;5.20;99.90
11112;DHT22;5609;49.466;8.468;2024-02-28T01:59:45;5.20;99.90
11112;DHT22;5609;49.466;8.468;2024-02-28T02:02:12;5.20;99.90
11112;DHT22;5609;49.466;8.468;2024-02-28T02:04:40;5.20;99.90
11112;DHT22;5609;49.466;8.468;2024-02-28T02:07:07;5.10;99.90
11112;DHT22;5609;49.466;8.468;2024-02-28T02:09:34;5.10;99.90
11112;DHT22;5609;49.466;8.468;2024-02-28T02:12:01;5.10;99.90
11112;DHT22;5609;49.466;8.468;2024-02-28T02:14:28;5.10;99.90
11112;DHT22;5609;49.466;8.468;2024-02-28T02:16:55;5.00;99.90
11112;DHT22;5609;49.466;8.468;2024-02-28T02:19:21;5.10;99.90
11112;DHT22;5609;49.466;8.468;2024-02-28T02:21:54;5.00;99.90
11112;DHT22;5609;49.466;8.468;2024-02-28T02:24:25;5.10;99.90
11112;DHT22;5609;49.466;8.468;2024-02-28T02:26:55;5.00;99.90
11112;DHT22;5609;49.466;8.468;2024-02-28T02:29:21;5.00;99.90
11112;DHT22;5609;49.466;8.468;2024-02-28T02:31:48;5.00;99.90
11112;DHT22;5609;49.466;8.468;2024-02-28T02:34:14;5.00;99.90
11112;DHT22;5609;49.466;8.468;2024-02-28T02:36:41;4.90;99.90
11112;DHT22;5609;49.466;8.468;2024-02-28T02:39:08;4.90;99.90
11112;DHT22;5609;49.466;8.468;2024-02-28T02:41:36;4.90;99.90
11112;DHT22;5609;49.466;8.468;2024-02-28T02:44:03;4.90;99.90
11112;DHT22;5609;49.466;8.468;2024-02-28T02:46:29;4.80;99.90
11112;DHT22;5609;49.466;8.468;2024-02-28T02:48:56;4.80;99.90
11112;DHT22;5609;49.466;8.468;2024-02-28T02:51:22;4.70;99.90
11112;DHT22;5609;49.466;8.468;2024-02-28T02:53:49;4.70;99.90
11112;DHT22;5609;49.466;8.468;2024-02-28T02:56:16;4.70;99.90
11112;DHT22;5609;49.466;8.468;2024-02-28T02:58:43;4.60;99.90
11112;DHT22;5609;49.466;8.468;2024-02-28T03:01:10;4.70;99.90
11112;DHT22;5609;49.466;8.468;2024-02-28T03:03:37;4.60;99.90
11112;DHT22;5609;49.466;8.468;2024-02-28T03:06:04;4.60;99.90
11112;DHT22;5609;49.466;8.468;2024-02-28T03:08:31;4.70;99.90
11112;DHT22;5609;49.466;8.468;2024-02-28T03:10:58;4.60;99.90
11112;DHT22;5609;49.466;8.468;2024-02-28T03:13:24;4.60;99.90
11112;DHT22;5609;49.466;8.468;2024-02-28T03:15:52;4.60;99.90
11112;DHT22;5609;49.466;8.468;2024-02-28T03:18:19;4.60;99.90
11112;DHT22;5609;49.466;8.468;2024-02-28T03:20:45;4.60;99.90
11112;DHT22;5609;49.466;8.468;2024-02-28T03:23:12;4.50;99.90
11112;DHT22;5609;49.466;8.468;2024-02-28T03:25:39;4.50;99.90
11112;DHT22;5609;49.466;8.468;2024-02-28T03:28:05;4.50;99.90
11112;DHT22;5609;49.466;8.468;2024-02-28T03:30:32;4.40;99.90
11112;DHT22;5609;49.466;8.468;2024-02-28T03:33:00;4.40;99.90
11112;DHT22;5609;49.466;8.468;2024-02-28T03:35:26;4.40;99.90
11112;DHT22;5609;49.466;8.468;2024-02-28T03:37:53;4.30;99.90
11112;DHT22;5609;49.466;8.468;2024-02-28T03:52:36;4.30;99.90
11112;DHT22;5609;49.466;8.468;2024-02-28T03:55:03;4.20;99.90
11112;DHT22;5609;49.466;8.468;2024-02-28T03:57:30;4.20;99.90
11112;DHT22;5609;49.466;8.468;2024-02-28T03:59:56;4.20;99.90
11112;DHT22;5609;49.466;8.468;2024-02-28T04:04:50;4.10;99.90
11112;DHT22;5609;49.466;8.468;2024-02-28T04:09:45;4.00;99.90
11112;DHT22;5609;49.466;8.468;2024-02-28T04:12:11;3.90;99.90
11112;DHT22;5609;49.466;8.468;2024-02-28T04:14:38;3.90;99.90
11112;DHT22;5609;49.466;8.468;2024-02-28T04:17:05;3.90;99.90
11112;DHT22;5609;49.466;8.468;2024-02-28T04:19:33;3.90;99.90
11112;DHT22;5609;49.466;8.468;2024-02-28T04:22:01;3.90;99.90
11112;DHT22;5609;49.466;8.468;2024-02-28T04:24:29;3.90;99.90
11112;DHT22;5609;49.466;8.468;2024-02-28T04:26:56;3.90;99.90
11112;DHT22;5609;49.466;8.468;2024-02-28T04:29:24;3.80;99.90
11112;DHT22;5609;49.466;8.468;2024-02-28T04:31:51;3.80;99.90
11112;DHT22;5609;49.466;8.468;2024-02-28T04:34:18;3.80;99.90
11112;DHT22;5609;49.466;8.468;2024-02-28T04:36:44;3.80;99.90
11112;DHT22;5609;49.466;8.468;2024-02-28T04:39:11;3.80;99.90
11112;DHT22;5609;49.466;8.468;2024-02-28T04:41:39;3.80;99.90
11112;DHT22;5609;49.466;8.468;2024-02-28T04:44:05;3.80;99.90
11112;DHT22;5609;49.466;8.468;2024-02-28T04:46:33;3.80;99.90
11112;DHT22;5609;49.466;8.468;2024-02-28T04:49:00;3.70;99.90
11112;DHT22;5609;49.466;8.468;2024-02-28T04:51:26;3.70;99.90
11112;DHT22;5609;49.466;8.468;2024-02-28T04:53:53;3.70;99.90
11112;DHT22;5609;49.466;8.468;2024-02-28T04:56:19;3.60;99.90
11112;DHT22;5609;49.466;8.468;2024-02-28T04:58:47;3.60;99.90
11112;DHT22;5609;49.466;8.468;2024-02-28T05:01:14;3.60;99.90
11112;DHT22;5609;49.466;8.468;2024-02-28T05:03:41;3.60;99.90
11112;DHT22;5609;49.466;8.468;2024-02-28T05:06:07;3.60;99.90
11112;DHT22;5609;49.466;8.468;2024-02-28T05:08:37;3.60;99.90
11112;DHT22;5609;49.466;8.468;2024-02-28T05:11:03;3.60;99.90
11112;DHT22;5609;49.466;8.468;2024-02-28T05:13:30;3.60;99.90
11112;DHT22;5609;49.466;8.468;2024-02-28T05:15:58;3.50;99.90
11112;DHT22;5609;49.466;8.468;2024-02-28T05:18:24;3.50;99.90
11112;DHT22;5609;49.466;8.468;2024-02-28T05:20:51;3.40;99.90
11112;DHT22;5609;49.466;8.468;2024-02-28T05:23:18;3.50;99.90
11112;DHT22;5609;49.466;8.468;2024-02-28T05:25:46;3.50;99.90
11112;DHT22;5609;49.466;8.468;2024-02-28T05:28:12;3.50;99.90
11112;DHT22;5609;49.466;8.468;2024-02-28T05:30:39;3.40;99.90
11112;DHT22;5609;49.466;8.468;2024-02-28T05:33:07;3.50;99.90
11112;DHT22;5609;49.466;8.468;2024-02-28T05:35:35;3.50;99.90
11112;DHT22;5609;49.466;8.468;2024-02-28T05:38:01;3.50;99.90
11112;DHT22;5609;49.466;8.468;2024-02-28T05:40:28;3.50;99.90
11112;DHT22;5609;49.466;8.468;2024-02-28T05:42:55;3.50;99.90
11112;DHT22;5609;49.466;8.468;2024-02-28T05:45:21;3.40;99.90
11112;DHT22;5609;49.466;8.468;2024-02-28T05:47:48;3.40;99.90
11112;DHT22;5609;49.466;8.468;2024-02-28T05:50:16;3.40;99.90
11112;DHT22;5609;49.466;8.468;2024-02-28T05:52:42;3.40;99.90
11112;DHT22;5609;49.466;8.468;2024-02-28T05:55:09;3.30;99.90
11112;DHT22;5609;49.466;8.468;2024-02-28T05:57:36;3.20;99.90
11112;DHT22;5609;49.466;8.468;2024-02-28T06:00:03;3.20;99.90
11112;DHT22;5609;49.466;8.468;2024-02-28T06:02:35;3.20;99.90
11112;DHT22;5609;49.466;8.468;2024-02-28T06:05:02;3.20;99.90
11112;DHT22;5609;49.466;8.468;2024-02-28T06:07:30;3.30;99.90
11112;DHT22;5609;49.466;8.468;2024-02-28T06:09:56;3.30;99.90
11112;DHT22;5609;49.466;8.468;2024-02-28T06:12:23;3.30;99.90
11112;DHT22;5609;49.466;8.468;2024-02-28T06:14:50;3.30;99.90
11112;DHT22;5609;49.466;8.468;2024-02-28T06:17:16;3.40;99.90
11112;DHT22;5609;49.466;8.468;2024-02-28T06:19:43;3.40;99.90
11112;DHT22;5609;49.466;8.468;2024-02-28T06:22:09;3.40;99.90
11112;DHT22;5609;49.466;8.468;2024-02-28T06:24:37;3.40;99.90
11112;DHT22;5609;49.466;8.468;2024-02-28T06:27:04;3.40;99.90
11112;DHT22;5609;49.466;8.468;2024-02-28T06:29:31;3.40;99.90
11112;DHT22;5609;49.466;8.468;2024-02-28T06:32:01;3.40;99.90
11112;DHT22;5609;49.466;8.468;2024-02-28T06:34:27;3.40;99.90
11112;DHT22;5609;49.466;8.468;2024-02-28T06:36:54;3.50;99.90
11112;DHT22;5609;49.466;8.468;2024-02-28T06:39:21;3.50;99.90
11112;DHT22;5609;49.466;8.468;2024-02-28T06:41:49;3.50;99.90
11112;DHT22;5609;49.466;8.468;2024-02-28T06:44:18;3.60;99.90
11112;DHT22;5609;49.466;8.468;2024-02-28T06:46:44;3.60;99.90
11112;DHT22;5609;49.466;8.468;2024-02-28T06:49:11;3.60;99.90
11112;DHT22;5609;49.466;8.468;2024-02-28T06:51:38;3.70;99.90
11112;DHT22;5609;49.466;8.468;2024-02-28T06:54:04;3.70;99.90
11112;DHT22;5609;49.466;8.468;2024-02-28T06:56:31;3.70;99.90
11112;DHT22;5609;49.466;8.468;2024-02-28T06:58:59;3.70;99.90
11112;DHT22;5609;49.466;8.468;2024-02-28T07:01:26;3.80;99.90
11112;DHT22;5609;49.466;8.468;2024-02-28T07:03:53;3.90;99.90
11112;DHT22;5609;49.466;8.468;2024-02-28T07:06:19;3.80;99.90
11112;DHT22;5609;49.466;8.468;2024-02-28T07:08:46;3.90;99.90
11112;DHT22;5609;49.466;8.468;2024-02-28T07:11:16;4.00;99.90
11112;DHT22;5609;49.466;8.468;2024-02-28T07:13:42;4.00;99.90
11112;DHT22;5609;49.466;8.468;2024-02-28T07:16:10;4.10;99.90
11112;DHT22;5609;49.466;8.468;2024-02-28T07:18:37;4.10;99.90
11112;DHT22;5609;49.466;8.468;2024-02-28T07:21:03;4.10;99.90
11112;DHT22;5609;49.466;8.468;2024-02-28T07:23:32;4.10;99.90
11112;DHT22;5609;49.466;8.468;2024-02-28T07:25:58;4.20;99.90
11112;DHT22;5609;49.466;8.468;2024-02-28T07:28:25;4.20;99.90
11112;DHT22;5609;49.466;8.468;2024-02-28T07:30:51;4.30;99.90
11112;DHT22;5609;49.466;8.468;2024-02-28T07:33:19;4.40;99.90
11112;DHT22;5609;49.466;8.468;2024-02-28T07:35:46;4.40;99.90
11112;DHT22;5609;49.466;8.468;2024-02-28T07:38:13;4.40;99.90
11112;DHT22;5609;49.466;8.468;2024-02-28T07:40:41;4.50;99.90
11112;DHT22;5609;49.466;8.468;2024-02-28T07:43:08;4.60;99.90
11112;DHT22;5609;49.466;8.468;2024-02-28T07:45:34;4.70;99.90
11112;DHT22;5609;49.466;8.468;2024-02-28T07:48:01;4.70;99.90
11112;DHT22;5609;49.466;8.468;2024-02-28T07:50:29;4.80;99.90
11112;DHT22;5609;49.466;8.468;2024-02-28T07:52:56;4.90;99.90
11112;DHT22;5609;49.466;8.468;2024-02-28T07:55:22;5.10;99.90
11112;DHT22;5609;49.466;8.468;2024-02-28T07:57:51;5.20;99.90
11112;DHT22;5609;49.466;8.468;2024-02-28T08:00:17;5.20;99.90
11112;DHT22;5609;49.466;8.468;2024-02-28T08:02:45;5.30;99.90
11112;DHT22;5609;49.466;8.468;2024-02-28T08:05:12;5.20;99.90
11112;DHT22;5609;49.466;8.468;2024-02-28T08:07:40;5.30;99.90
11112;DHT22;5609;49.466;8.468;2024-02-28T08:10:08;5.50;99.90
11112;DHT22;5609;49.466;8.468;2024-02-28T08:12:35;5.50;99.90
11112;DHT22;5609;49.466;8.468;2024-02-28T08:15:02;5.50;99.90
11112;DHT22;5609;49.466;8.468;2024-02-28T08:17:29;5.50;99.90
11112;DHT22;5609;49.466;8.468;2024-02-28T08:19:55;5.50;99.90
11112;DHT22;5609;49.466;8.468;2024-02-28T08:22:22;5.40;99.90
11112;DHT22;5609;49.466;8.468;2024-02-28T08:24:52;5.40;99.90
11112;DHT22;5609;49.466;8.468;2024-02-28T08:27:19;5.40;99.90
11112;DHT22;5609;49.466;8.468;2024-02-28T08:29:46;5.40;99.90
11112;DHT22;5609;49.466;8.468;2024-02-28T08:32:12;5.50;99.90
11112;DHT22;5609;49.466;8.468;2024-02-28T08:34:43;5.60;99.90
11112;DHT22;5609;49.466;8.468;2024-02-28T08:37:09;5.70;99.90
11112;DHT22;5609;49.466;8.468;2024-02-28T08:39:36;5.70;99.90
11112;DHT22;5609;49.466;8.468;2024-02-28T08:42:05;5.80;99.90
11112;DHT22;5609;49.466;8.468;2024-02-28T08:44:32;6.00;99.90
11112;DHT22;5609;49.466;8.468;2024-02-28T08:46:58;6.10;99.90
11112;DHT22;5609;49.466;8.468;2024-02-28T08:49:25;6.10;99.90
11112;DHT22;5609;49.466;8.468;2024-02-28T08:51:52;6.10;99.90
11112;DHT22;5609;49.466;8.468;2024-02-28T08:54:18;6.10;99.90
11112;DHT22;5609;49.466;8.468;2024-02-28T08:56:45;6.10;99.90
11112;DHT22;5609;49.466;8.468;2024-02-28T08:59:13;6.20;99.90
11112;DHT22;5609;49.466;8.468;2024-02-28T09:01:40;6.10;99.90
11112;DHT22;5609;49.466;8.468;2024-02-28T09:04:07;6.10;99.90
11112;DHT22;5609;49.466;8.468;2024-02-28T09:06:34;6.10;99.90
11112;DHT22;5609;49.466;8.468;2024-02-28T09:09:00;6.10;99.90
11112;DHT22;5609;49.466;8.468;2024-02-28T09:11:27;6.20;99.90
11112;DHT22;5609;49.466;8.468;2024-02-28T09:13:53;6.20;99.90
11112;DHT22;5609;49.466;8.468;2024-02-28T09:16:21;6.40;99.90
11112;DHT22;5609;49.466;8.468;2024-02-28T09:18:48;6.60;99.90
11112;DHT22;5609;49.466;8.468;2024-02-28T09:21:14;6.70;99.90
11112;DHT22;5609;49.466;8.468;2024-02-28T09:23:41;6.80;99.90
11112;DHT22;5609;49.466;8.468;2024-02-28T09:26:08;7.00;99.90
11112;DHT22;5609;49.466;8.468;2024-02-28T09:28:35;7.10;99.90
11112;DHT22;5609;49.466;8.468;2024-02-28T09:31:02;7.30;99.90
11112;DHT22;5609;49.466;8.468;2024-02-28T09:33:31;7.40;99.90
11112;DHT22;5609;49.466;8.468;2024-02-28T09:35:57;7.50;99.90
11112;DHT22;5609;49.466;8.468;2024-02-28T09:38:24;7.70;99.90
11112;DHT22;5609;49.466;8.468;2024-02-28T09:40:51;7.80;99.90
11112;DHT22;5609;49.466;8.468;2024-02-28T09:43:23;7.90;99.90
11112;DHT22;5609;49.466;8.468;2024-02-28T09:45:50;8.10;99.90
11112;DHT22;5609;49.466;8.468;2024-02-28T09:48:18;8.10;99.90
11112;DHT22;5609;49.466;8.468;2024-02-28T09:50:47;8.20;99.90
11112;DHT22;5609;49.466;8.468;2024-02-28T09:53:14;8.30;99.90
11112;DHT22;5609;49.466;8.468;2024-02-28T09:55:40;8.40;99.90
11112;DHT22;5609;49.466;8.468;2024-02-28T09:58:08;8.60;99.90
11112;DHT22;5609;49.466;8.468;2024-02-28T10:00:35;8.60;99.90
11112;DHT22;5609;49.466;8.468;2024-02-28T10:03:04;8.40;99.90
11112;DHT22;5609;49.466;8.468;2024-02-28T10:05:32;8.40;99.90
11112;DHT22;5609;49.466;8.468;2024-02-28T10:08:01;8.50;99.90
11112;DHT22;5609;49.466;8.468;2024-02-28T10:10:28;8.60;99.90
11112;DHT22;5609;49.466;8.468;2024-02-28T10:12:55;8.60;99.90
11112;DHT22;5609;49.466;8.468;2024-02-28T10:15:22;8.70;99.90
11112;DHT22;5609;49.466;8.468;2024-02-28T10:17:48;8.70;99.90
11112;DHT22;5609;49.466;8.468;2024-02-28T10:20:15;8.80;99.90
11112;DHT22;5609;49.466;8.468;2024-02-28T10:22:42;8.70;99.90
11112;DHT22;5609;49.466;8.468;2024-02-28T10:25:10;9.00;99.90
11112;DHT22;5609;49.466;8.468;2024-02-28T10:27:36;9.00;99.90
11112;DHT22;5609;49.466;8.468;2024-02-28T10:30:04;9.30;99.90
11112;DHT22;5609;49.466;8.468;2024-02-28T10:32:31;9.30;99.90
11112;DHT22;5609;49.466;8.468;2024-02-28T10:34:59;9.20;99.90
11112;DHT22;5609;49.466;8.468;2024-02-28T10:37:28;9.20;99.90
11112;DHT22;5609;49.466;8.468;2024-02-28T10:39:57;9.10;99.90
11112;DHT22;5609;49.466;8.468;2024-02-28T10:42:26;9.20;99.90
11112;DHT22;5609;49.466;8.468;2024-02-28T10:44:55;9.20;99.90
11112;DHT22;5609;49.466;8.468;2024-02-28T10:47:24;9.30;99.90
11112;DHT22;5609;49.466;8.468;2024-02-28T10:49:51;9.60;99.90
11112;DHT22;5609;49.466;8.468;2024-02-28T10:52:20;9.60;99.90
11112;DHT22;5609;49.466;8.468;2024-02-28T10:54:52;9.50;99.90
11112;DHT22;5609;49.466;8.468;2024-02-28T10:57:21;9.70;99.90
11112;DHT22;5609;49.466;8.468;2024-02-28T10:59:49;9.80;99.90
11112;DHT22;5609;49.466;8.468;2024-02-28T11:02:16;9.90;99.90
11112;DHT22;5609;49.466;8.468;2024-02-28T11:04:43;9.80;99.90
11112;DHT22;5609;49.466;8.468;2024-02-28T11:07:10;10.00;99.90
11112;DHT22;5609;49.466;8.468;2024-02-28T11:09:36;10.10;99.90
11112;DHT22;5609;49.466;8.468;2024-02-28T11:12:04;10.10;99.90
11112;DHT22;5609;49.466;8.468;2024-02-28T11:14:31;10.30;99.90
11112;DHT22;5609;49.466;8.468;2024-02-28T11:17:03;10.30;99.90
11112;DHT22;5609;49.466;8.468;2024-02-28T11:19:30;10.30;99.90
11112;DHT22;5609;49.466;8.468;2024-02-28T11:21:58;10.10;99.90
11112;DHT22;5609;49.466;8.468;2024-02-28T11:24:29;10.20;99.90
11112;DHT22;5609;49.466;8.468;2024-02-28T11:26:57;10.20;99.90
11112;DHT22;5609;49.466;8.468;2024-02-28T11:29:24;10.40;99.90
11112;DHT22;5609;49.466;8.468;2024-02-28T11:31:51;10.60;99.90
11112;DHT22;5609;49.466;8.468;2024-02-28T11:34:19;10.70;99.90
11112;DHT22;5609;49.466;8.468;2024-02-28T11:36:47;10.80;99.90
11112;DHT22;5609;49.466;8.468;2024-02-28T11:39:15;10.80;99.90
11112;DHT22;5609;49.466;8.468;2024-02-28T11:41:42;11.10;99.90
11112;DHT22;5609;49.466;8.468;2024-02-28T11:44:11;11.40;99.90
11112;DHT22;5609;49.466;8.468;2024-02-28T11:46:42;11.80;99.90
11112;DHT22;5609;49.466;8.468;2024-02-28T11:49:09;12.00;99.90
11112;DHT22;5609;49.466;8.468;2024-02-28T11:51:36;11.90;99.90
11112;DHT22;5609;49.466;8.468;2024-02-28T11:54:03;11.80;99.90
11112;DHT22;5609;49.466;8.468;2024-02-28T11:56:31;11.90;99.90
11112;DHT22;5609;49.466;8.468;2024-02-28T11:58:58;12.20;99.90
11112;DHT22;5609;49.466;8.468;2024-02-28T12:01:35;12.40;99.90
11112;DHT22;5609;49.466;8.468;2024-02-28T12:04:02;12.20;99.90
11112;DHT22;5609;49.466;8.468;2024-02-28T12:06:30;11.80;99.90
11112;DHT22;5609;49.466;8.468;2024-02-28T12:08:58;12.00;99.90
11112;DHT22;5609;49.466;8.468;2024-02-28T12:11:25;12.00;99.90
11112;DHT22;5609;49.466;8.468;2024-02-28T12:13:54;12.40;99.90
11112;DHT22;5609;49.466;8.468;2024-02-28T12:16:22;12.50;99.90
11112;DHT22;5609;49.466;8.468;2024-02-28T12:18:49;12.80;99.90
11112;DHT22;5609;49.466;8.468;2024-02-28T12:21:15;13.00;99.90
11112;DHT22;5609;49.466;8.468;2024-02-28T12:23:42;13.00;99.90
11112;DHT22;5609;49.466;8.468;2024-02-28T12:26:10;13.10;99.90
11112;DHT22;5609;49.466;8.468;2024-02-28T12:28:37;13.10;99.90
11112;DHT22;5609;49.466;8.468;2024-02-28T12:31:05;13.20;99.90
11112;DHT22;5609;49.466;8.468;2024-02-28T12:33:34;13.20;99.90
11112;DHT22;5609;49.466;8.468;2024-02-28T12:36:00;12.80;99.90
11112;DHT22;5609;49.466;8.468;2024-02-28T12:38:28;13.10;99.90
11112;DHT22;5609;49.466;8.468;2024-02-28T12:40:56;13.20;99.90
11112;DHT22;5609;49.466;8.468;2024-02-28T12:43:24;13.20;99.90
11112;DHT22;5609;49.466;8.468;2024-02-28T12:45:51;13.00;99.90
11112;DHT22;5609;49.466;8.468;2024-02-28T12:48:17;13.10;99.90
11112;DHT22;5609;49.466;8.468;2024-02-28T12:50:44;13.50;99.90
11112;DHT22;5609;49.466;8.468;2024-02-28T12:53:10;13.70;99.90
11112;DHT22;5609;49.466;8.468;2024-02-28T12:55:37;14.00;99.90
11112;DHT22;5609;49.466;8.468;2024-02-28T12:58:04;14.20;99.50
11112;DHT22;5609;49.466;8.468;2024-02-28T13:00:32;14.50;96.80
11112;DHT22;5609;49.466;8.468;2024-02-28T13:02:59;14.80;94.00
11112;DHT22;5609;49.466;8.468;2024-02-28T13:05:25;15.10;91.00
11112;DHT22;5609;49.466;8.468;2024-02-28T13:07:52;15.10;87.50
11112;DHT22;5609;49.466;8.468;2024-02-28T13:10:19;15.40;77.60
11112;DHT22;5609;49.466;8.468;2024-02-28T13:12:47;15.20;77.50
11112;DHT22;5609;49.466;8.468;2024-02-28T13:15:13;15.60;73.50
11112;DHT22;5609;49.466;8.468;2024-02-28T13:17:41;15.70;67.10
11112;DHT22;5609;49.466;8.468;2024-02-28T13:20:08;16.00;62.90
11112;DHT22;5609;49.466;8.468;2024-02-28T13:22:35;15.80;58.80
11112;DHT22;5609;49.466;8.468;2024-02-28T13:25:02;16.30;53.80
11112;DHT22;5609;49.466;8.468;2024-02-28T13:27:28;16.50;46.20
11112;DHT22;5609;49.466;8.468;2024-02-28T13:29:55;16.70;41.50
11112;DHT22;5609;49.466;8.468;2024-02-28T13:32:21;17.40;37.50
11112;DHT22;5609;49.466;8.468;2024-02-28T13:34:49;17.80;28.90
11112;DHT22;5609;49.466;8.468;2024-02-28T13:37:16;18.30;23.10
11112;DHT22;5609;49.466;8.468;2024-02-28T13:39:43;17.90;18.70
11112;DHT22;5609;49.466;8.468;2024-02-28T13:42:09;17.60;20.30
11112;DHT22;5609;49.466;8.468;2024-02-28T13:44:36;17.30;20.10
11112;DHT22;5609;49.466;8.468;2024-02-28T13:47:03;16.90;23.80
11112;DHT22;5609;49.466;8.468;2024-02-28T13:49:30;17.10;20.70
11112;DHT22;5609;49.466;8.468;2024-02-28T13:51:58;16.50;22.00
11112;DHT22;5609;49.466;8.468;2024-02-28T13:54:25;16.30;26.70
11112;DHT22;5609;49.466;8.468;2024-02-28T13:56:51;16.40;25.50
11112;DHT22;5609;49.466;8.468;2024-02-28T13:59:18;16.60;24.50
11112;DHT22;5609;49.466;8.468;2024-02-28T14:01:45;17.10;21.30
11112;DHT22;5609;49.466;8.468;2024-02-28T14:04:11;17.60;16.70
11112;DHT22;5609;49.466;8.468;2024-02-28T14:06:38;18.10;13.20
11112;DHT22;5609;49.466;8.468;2024-02-28T14:09:06;17.80;9.40
11112;DHT22;5609;49.466;8.468;2024-02-28T14:11:32;17.70;13.00
11112;DHT22;5609;49.466;8.468;2024-02-28T14:13:59;17.50;10.90
11112;DHT22;5609;49.466;8.468;2024-02-28T14:16:26;17.50;14.00
11112;DHT22;5609;49.466;8.468;2024-02-28T14:18:52;17.80;13.40
11112;DHT22;5609;49.466;8.468;2024-02-28T14:21:19;18.00;8.50
11112;DHT22;5609;49.466;8.468;2024-02-28T14:23:47;18.00;7.60
11112;DHT22;5609;49.466;8.468;2024-02-28T14:26:16;18.30;8.40
11112;DHT22;5609;49.466;8.468;2024-02-28T14:28:42;18.80;1.00
11112;DHT22;5609;49.466;8.468;2024-02-28T14:31:10;18.90;1.00
11112;DHT22;5609;49.466;8.468;2024-02-28T15:59:42;19.00;1.00
11112;DHT22;5609;49.466;8.468;2024-02-28T16:02:09;17.20;14.00
11112;DHT22;5609;49.466;8.468;2024-02-28T16:04:37;17.00;47.60
11112;DHT22;5609;49.466;8.468;2024-02-28T16:07:04;16.80;65.00
11112;DHT22;5609;49.466;8.468;2024-02-28T16:09:32;16.50;40.50
11112;DHT22;5609;49.466;8.468;2024-02-28T16:11:58;16.30;75.10
11112;DHT22;5609;49.466;8.468;2024-02-28T16:14:25;16.30;74.90
11112;DHT22;5609;49.466;8.468;2024-02-28T16:16:51;15.90;57.20
11112;DHT22;5609;49.466;8.468;2024-02-28T16:19:18;15.50;54.20
11112;DHT22;5609;49.466;8.468;2024-02-28T16:21:45;15.10;48.40
11112;DHT22;5609;49.466;8.468;2024-02-28T16:24:14;14.60;92.60
11112;DHT22;5609;49.466;8.468;2024-02-28T16:26:42;14.30;77.50
11112;DHT22;5609;49.466;8.468;2024-02-28T16:29:09;13.90;99.00
11112;DHT22;5609;49.466;8.468;2024-02-28T16:31:36;13.80;98.90
11112;DHT22;5609;49.466;8.468;2024-02-28T16:34:02;13.60;98.40
11112;DHT22;5609;49.466;8.468;2024-02-28T16:36:29;13.30;92.50
11112;DHT22;5609;49.466;8.468;2024-02-28T16:38:56;13.20;93.10
11112;DHT22;5609;49.466;8.468;2024-02-28T16:41:23;13.10;99.60
11112;DHT22;5609;49.466;8.468;2024-02-28T16:43:51;13.10;99.90
11112;DHT22;5609;49.466;8.468;2024-02-28T16:46:20;13.00;98.30
11112;DHT22;5609;49.466;8.468;2024-02-28T16:48:46;12.80;99.90
11112;DHT22;5609;49.466;8.468;2024-02-28T16:51:13;12.80;99.90
11112;DHT22;5609;49.466;8.468;2024-02-28T16:53:40;12.90;99.90
11112;DHT22;5609;49.466;8.468;2024-02-28T16:56:06;13.20;99.90
11112;DHT22;5609;49.466;8.468;2024-02-28T16:58:33;13.30;99.90
11112;DHT22;5609;49.466;8.468;2024-02-28T17:01:03;13.00;99.90
11112;DHT22;5609;49.466;8.468;2024-02-28T17:03:30;13.20;99.90
11112;DHT22;5609;49.466;8.468;2024-02-28T17:05:57;13.40;99.90
11112;DHT22;5609;49.466;8.468;2024-02-28T17:08:24;13.70;99.90
11112;DHT22;5609;49.466;8.468;2024-02-28T17:10:50;13.80;99.90
11112;DHT22;5609;49.466;8.468;2024-02-28T17:13:18;13.90;99.90
11112;DHT22;5609;49.466;8.468;2024-02-28T17:15:44;14.00;99.90
11112;DHT22;5609;49.466;8.468;2024-02-28T17:18:13;13.90;99.90
11112;DHT22;5609;49.466;8.468;2024-02-28T17:20:40;13.80;99.90
11112;DHT22;5609;49.466;8.468;2024-02-28T17:23:07;13.80;99.90
11112;DHT22;5609;49.466;8.468;2024-02-28T17:25:33;13.90;99.90
11112;DHT22;5609;49.466;8.468;2024-02-28T17:28:00;13.90;99.90
11112;DHT22;5609;49.466;8.468;2024-02-28T17:30:26;13.80;99.90
11112;DHT22;5609;49.466;8.468;2024-02-28T17:32:53;13.90;99.90
11112;DHT22;5609;49.466;8.468;2024-02-28T17:35:21;13.90;99.90
11112;DHT22;5609;49.466;8.468;2024-02-28T17:37:48;13.90;99.90
11112;DHT22;5609;49.466;8.468;2024-02-28T17:40:14;13.70;99.90